sensor_id;sensor_type;location;lat;lon;timestamp;pressure;altitude;pressure_sealevel;temperature;humidity
3294;BME280;1659;51.470;6.770;2023-04-08T00:02:25;102004.78;;;8.35;100.00
3294;BME280;1659;51.470;6.770;2023-04-08T00:04:52;102001.28;;;8.33;100.00
3294;BME280;1659;51.470;6.770;2023-04-08T00:07:18;102007.41;;;8.32;100.00
3294;BME280;1659;51.470;6.770;2023-04-08T00:09:46;102007.41;;;8.30;100.00
3294;BME280;1659;51.470;6.770;2023-04-08T00:12:13;102015.28;;;8.29;100.00
3294;BME280;1659;51.470;6.770;2023-04-08T00:14:39;102006.50;;;8.27;100.00
3294;BME280;1659;51.470;6.770;2023-04-08T00:17:06;102007.34;;;8.26;100.00
3294;BME280;1659;51.470;6.770;2023-04-08T00:19:32;102013.47;;;8.26;100.00
3294;BME280;1659;51.470;6.770;2023-04-08T00:21:59;102007.34;;;8.26;100.00
3294;BME280;1659;51.470;6.770;2023-04-08T00:24:26;102009.09;;;8.25;100.00
3294;BME280;1659;51.470;6.770;2023-04-08T00:26:53;102020.50;;;8.24;100.00
3294;BME280;1659;51.470;6.770;2023-04-08T00:29:20;102016.97;;;8.24;100.00
3294;BME280;1659;51.470;6.770;2023-04-08T00:31:47;102025.72;;;8.23;100.00
3294;BME280;1659;51.470;6.770;2023-04-08T00:34:13;102016.97;;;8.22;100.00
3294;BME280;1659;51.470;6.770;2023-04-08T00:36:40;102029.25;;;8.22;100.00
3294;BME280;1659;51.470;6.770;2023-04-08T00:39:07;102020.47;;;8.21;100.00
3294;BME280;1659;51.470;6.770;2023-04-08T00:41:34;102022.19;;;8.21;100.00
3294;BME280;1659;51.470;6.770;2023-04-08T00:44:02;102023.94;;;8.19;100.00
3294;BME280;1659;51.470;6.770;2023-04-08T00:46:29;102019.53;;;8.18;100.00
3294;BME280;1659;51.470;6.770;2023-04-08T00:48:56;102023.06;;;8.17;100.00
3294;BME280;1659;51.470;6.770;2023-04-08T00:51:23;102023.88;;;8.14;100.00
3294;BME280;1659;51.470;6.770;2023-04-08T00:53:50;102033.53;;;8.13;100.00
3294;BME280;1659;51.470;6.770;2023-04-08T00:56:16;102034.41;;;8.12;100.00
3294;BME280;1659;51.470;6.770;2023-04-08T00:58:43;102032.63;;;8.10;100.00
3294;BME280;1659;51.470;6.770;2023-04-08T01:01:14;102035.22;;;8.08;100.00
3294;BME280;1659;51.470;6.770;2023-04-08T01:03:54;102033.47;;;8.07;100.00
3294;BME280;1659;51.470;6.770;2023-04-08T01:06:28;102040.50;;;8.08;100.00
3294;BME280;1659;51.470;6.770;2023-04-08T01:08:58;102044.88;;;8.08;100.00
3294;BME280;1659;51.470;6.770;2023-04-08T01:11:26;102033.47;;;8.07;100.00
3294;BME280;1659;51.470;6.770;2023-04-08T01:13:56;102041.38;;;8.07;100.00
3294;BME280;1659;51.470;6.770;2023-04-08T01:16:25;102046.66;;;8.07;100.00
3294;BME280;1659;51.470;6.770;2023-04-08T01:18:52;102038.69;;;8.04;100.00
3294;BME280;1659;51.470;6.770;2023-04-08T01:21:21;102038.69;;;8.03;100.00
3294;BME280;1659;51.470;6.770;2023-04-08T01:23:55;102037.78;;;8.01;100.00
3294;BME280;1659;51.470;6.770;2023-04-08T01:26:26;102038.63;;;7.98;100.00
3294;BME280;1659;51.470;6.770;2023-04-08T01:28:57;102034.22;;;7.96;100.00
3294;BME280;1659;51.470;6.770;2023-04-08T01:31:25;102046.47;;;7.93;100.00
3294;BME280;1659;51.470;6.770;2023-04-08T01:33:52;102042.91;;;7.90;100.00
3294;BME280;1659;51.470;6.770;2023-04-08T01:36:20;102041.13;;;7.89;100.00
3294;BME280;1659;51.470;6.770;2023-04-08T01:38:48;102038.47;;;7.86;100.00
3294;BME280;1659;51.470;6.770;2023-04-08T01:41:17;102035.81;;;7.86;100.00
3294;BME280;1659;51.470;6.770;2023-04-08T01:43:47;102041.06;;;7.84;100.00
3294;BME280;1659;51.470;6.770;2023-04-08T01:46:15;102044.59;;;7.85;100.00
3294;BME280;1659;51.470;6.770;2023-04-08T01:48:43;102044.59;;;7.83;100.00
3294;BME280;1659;51.470;6.770;2023-04-08T01:51:10;102041.94;;;7.82;100.00
3294;BME280;1659;51.470;6.770;2023-04-08T01:53:37;102042.78;;;7.81;100.00
3294;BME280;1659;51.470;6.770;2023-04-08T01:56:06;102032.22;;;7.79;100.00
3294;BME280;1659;51.470;6.770;2023-04-08T01:58:37;102033.97;;;7.79;100.00
3294;BME280;1659;51.470;6.770;2023-04-08T02:01:09;102046.25;;;7.78;100.00
3294;BME280;1659;51.470;6.770;2023-04-08T02:03:37;102040.97;;;7.77;100.00
3294;BME280;1659;51.470;6.770;2023-04-08T02:06:04;102043.56;;;7.73;100.00
3294;BME280;1659;51.470;6.770;2023-04-08T02:08:32;102054.06;;;7.72;100.00
3294;BME280;1659;51.470;6.770;2023-04-08T02:10:59;102049.63;;;7.68;100.00
3294;BME280;1659;51.470;6.770;2023-04-08T02:13:26;102056.56;;;7.63;100.00
3294;BME280;1659;51.470;6.770;2023-04-08T02:15:56;102060.84;;;7.56;100.00
3294;BME280;1659;51.470;6.770;2023-04-08T02:18:27;102054.63;;;7.49;100.00
3294;BME280;1659;51.470;6.770;2023-04-08T02:20:58;102054.53;;;7.42;100.00
3294;BME280;1659;51.470;6.770;2023-04-08T02:23:28;102057.03;;;7.34;100.00
3294;BME280;1659;51.470;6.770;2023-04-08T02:25:59;102062.16;;;7.26;100.00
3294;BME280;1659;51.470;6.770;2023-04-08T02:28:27;102066.41;;;7.16;100.00
3294;BME280;1659;51.470;6.770;2023-04-08T02:30:56;102066.25;;;7.09;100.00
3294;BME280;1659;51.470;6.770;2023-04-08T02:33:25;102055.63;;;7.01;100.00
3294;BME280;1659;51.470;6.770;2023-04-08T02:35:55;102064.22;;;6.91;100.00
3294;BME280;1659;51.470;6.770;2023-04-08T02:38:22;102052.66;;;6.81;100.00
3294;BME280;1659;51.470;6.770;2023-04-08T02:40:54;102056.00;;;6.72;100.00
3294;BME280;1659;51.470;6.770;2023-04-08T02:43:20;102054.13;;;6.65;100.00
3294;BME280;1659;51.470;6.770;2023-04-08T02:45:51;102065.41;;;6.59;100.00
3294;BME280;1659;51.470;6.770;2023-04-08T02:48:17;102058.25;;;6.51;100.00
3294;BME280;1659;51.470;6.770;2023-04-08T02:50:44;102058.97;;;6.42;100.00
3294;BME280;1659;51.470;6.770;2023-04-08T02:53:12;102058.81;;;6.36;100.00
3294;BME280;1659;51.470;6.770;2023-04-08T02:55:39;102067.41;;;6.27;100.00
3294;BME280;1659;51.470;6.770;2023-04-08T02:58:05;102060.28;;;6.20;100.00
3294;BME280;1659;51.470;6.770;2023-04-08T03:00:32;102067.13;;;6.13;100.00
3294;BME280;1659;51.470;6.770;2023-04-08T03:02:58;102066.13;;;6.07;100.00
3294;BME280;1659;51.470;6.770;2023-04-08T03:05:25;102077.38;;;6.01;100.00
3294;BME280;1659;51.470;6.770;2023-04-08T03:07:51;102081.63;;;5.96;100.00
3294;BME280;1659;51.470;6.770;2023-04-08T03:10:19;102073.63;;;5.90;100.00
3294;BME280;1659;51.470;6.770;2023-04-08T03:12:46;102070.84;;;5.83;100.00
3294;BME280;1659;51.470;6.770;2023-04-08T03:15:12;102074.22;;;5.78;100.00
3294;BME280;1659;51.470;6.770;2023-04-08T03:17:39;102070.63;;;5.73;100.00
3294;BME280;1659;51.470;6.770;2023-04-08T03:20:08;102072.25;;;5.67;100.00
3294;BME280;1659;51.470;6.770;2023-04-08T03:22:35;102069.59;;;5.66;100.00
3294;BME280;1659;51.470;6.770;2023-04-08T03:25:02;102079.16;;;5.64;100.00
3294;BME280;1659;51.470;6.770;2023-04-08T03:27:30;102072.91;;;5.59;100.00
3294;BME280;1659;51.470;6.770;2023-04-08T03:29:57;102068.44;;;5.53;100.00
3294;BME280;1659;51.470;6.770;2023-04-08T03:32:23;102077.09;;;5.49;100.00
3294;BME280;1659;51.470;6.770;2023-04-08T03:34:50;102078.69;;;5.42;100.00
3294;BME280;1659;51.470;6.770;2023-04-08T03:37:16;102080.31;;;5.37;100.00
3294;BME280;1659;51.470;6.770;2023-04-08T03:39:43;102083.72;;;5.35;100.00
3294;BME280;1659;51.470;6.770;2023-04-08T03:42:10;102084.47;;;5.29;100.00
3294;BME280;1659;51.470;6.770;2023-04-08T03:44:38;102079.97;;;5.23;100.00
3294;BME280;1659;51.470;6.770;2023-04-08T03:47:05;102084.22;;;5.18;100.00
3294;BME280;1659;51.470;6.770;2023-04-08T03:49:31;102084.13;;;5.15;100.00
3294;BME280;1659;51.470;6.770;2023-04-08T03:51:58;102084.91;;;5.11;100.00
3294;BME280;1659;51.470;6.770;2023-04-08T03:54:24;102086.53;;;5.06;100.00
3294;BME280;1659;51.470;6.770;2023-04-08T03:56:51;102092.53;;;5.02;100.00
3294;BME280;1659;51.470;6.770;2023-04-08T03:59:17;102089.78;;;4.97;100.00
3294;BME280;1659;51.470;6.770;2023-04-08T04:01:45;102086.25;;;4.95;100.00
3294;BME280;1659;51.470;6.770;2023-04-08T04:04:12;102090.56;;;4.93;100.00
3294;BME280;1659;51.470;6.770;2023-04-08T04:06:38;102083.47;;;4.89;100.00
3294;BME280;1659;51.470;6.770;2023-04-08T04:09:05;102093.91;;;4.87;100.00
3294;BME280;1659;51.470;6.770;2023-04-08T04:11:33;102101.69;;;4.84;100.00
3294;BME280;1659;51.470;6.770;2023-04-08T04:13:59;102097.25;;;4.82;100.00
3294;BME280;1659;51.470;6.770;2023-04-08T04:16:26;102098.84;;;4.77;100.00
3294;BME280;1659;51.470;6.770;2023-04-08T04:18:54;102107.50;;;4.72;100.00
3294;BME280;1659;51.470;6.770;2023-04-08T04:21:20;102111.84;;;4.72;100.00
3294;BME280;1659;51.470;6.770;2023-04-08T04:23:47;102110.88;;;4.68;100.00
3294;BME280;1659;51.470;6.770;2023-04-08T04:26:13;102117.00;;;4.69;100.00
3294;BME280;1659;51.470;6.770;2023-04-08T04:28:40;102117.03;;;4.70;100.00
3294;BME280;1659;51.470;6.770;2023-04-08T04:31:07;102131.97;;;4.75;100.00
3294;BME280;1659;51.470;6.770;2023-04-08T04:33:33;102119.91;;;4.80;100.00
3294;BME280;1659;51.470;6.770;2023-04-08T04:36:01;102123.56;;;4.86;100.00
3294;BME280;1659;51.470;6.770;2023-04-08T04:38:27;102124.66;;;4.95;100.00
3294;BME280;1659;51.470;6.770;2023-04-08T04:40:54;102124.84;;;5.02;100.00
3294;BME280;1659;51.470;6.770;2023-04-08T04:43:22;102129.44;;;5.11;100.00
3294;BME280;1659;51.470;6.770;2023-04-08T04:45:48;102126.19;;;5.20;100.00
3294;BME280;1659;51.470;6.770;2023-04-08T04:48:15;102118.56;;;5.30;100.00
3294;BME280;1659;51.470;6.770;2023-04-08T04:50:41;102123.53;;;5.55;100.00
3294;BME280;1659;51.470;6.770;2023-04-08T04:53:09;102137.22;;;5.79;100.00
3294;BME280;1659;51.470;6.770;2023-04-08T04:55:36;102134.25;;;6.02;100.00
3294;BME280;1659;51.470;6.770;2023-04-08T04:58:02;102138.88;;;6.12;100.00
3294;BME280;1659;51.470;6.770;2023-04-08T05:00:29;102130.19;;;6.16;100.00
3294;BME280;1659;51.470;6.770;2023-04-08T05:02:55;102141.59;;;6.18;100.00
3294;BME280;1659;51.470;6.770;2023-04-08T05:05:22;102146.00;;;6.19;100.00
3294;BME280;1659;51.470;6.770;2023-04-08T05:07:48;102146.88;;;6.20;100.00
3294;BME280;1659;51.470;6.770;2023-04-08T05:10:16;102147.78;;;6.20;100.00
3294;BME280;1659;51.470;6.770;2023-04-08T05:12:43;102146.00;;;6.19;100.00
3294;BME280;1659;51.470;6.770;2023-04-08T05:15:10;102152.09;;;6.18;100.00
3294;BME280;1659;51.470;6.770;2023-04-08T05:17:36;102146.88;;;6.20;100.00
3294;BME280;1659;51.470;6.770;2023-04-08T05:20:03;102146.88;;;6.20;100.00
3294;BME280;1659;51.470;6.770;2023-04-08T05:22:30;102149.56;;;6.21;100.00
3294;BME280;1659;51.470;6.770;2023-04-08T05:24:56;102148.75;;;6.24;100.00
3294;BME280;1659;51.470;6.770;2023-04-08T05:27:24;102152.25;;;6.24;100.00
3294;BME280;1659;51.470;6.770;2023-04-08T05:29:51;102159.28;;;6.26;100.00
3294;BME280;1659;51.470;6.770;2023-04-08T05:32:18;102164.56;;;6.29;100.00
3294;BME280;1659;51.470;6.770;2023-04-08T05:34:44;102152.34;;;6.29;100.00
3294;BME280;1659;51.470;6.770;2023-04-08T05:37:11;102161.16;;;6.31;100.00
3294;BME280;1659;51.470;6.770;2023-04-08T05:39:37;102161.22;;;6.34;100.00
3294;BME280;1659;51.470;6.770;2023-04-08T05:42:04;102167.41;;;6.38;100.00
3294;BME280;1659;51.470;6.770;2023-04-08T05:44:32;102171.84;;;6.40;100.00
3294;BME280;1659;51.470;6.770;2023-04-08T05:46:58;102177.19;;;6.45;100.00
3294;BME280;1659;51.470;6.770;2023-04-08T05:49:25;102176.44;;;6.51;100.00
3294;BME280;1659;51.470;6.770;2023-04-08T05:51:51;102173.00;;;6.55;100.00
3294;BME280;1659;51.470;6.770;2023-04-08T05:54:18;102180.91;;;6.56;100.00
3294;BME280;1659;51.470;6.770;2023-04-08T05:56:44;102180.88;;;6.55;100.00
3294;BME280;1659;51.470;6.770;2023-04-08T05:59:13;102188.78;;;6.56;100.00
3294;BME280;1659;51.470;6.770;2023-04-08T06:01:41;102184.41;;;6.55;100.00
3294;BME280;1659;51.470;6.770;2023-04-08T06:04:07;102192.28;;;6.57;100.00
3294;BME280;1659;51.470;6.770;2023-04-08T06:06:34;102188.78;;;6.56;100.00
3294;BME280;1659;51.470;6.770;2023-04-08T06:09:02;102196.75;;;6.59;100.00
3294;BME280;1659;51.470;6.770;2023-04-08T06:11:29;102195.91;;;6.60;100.00
3294;BME280;1659;51.470;6.770;2023-04-08T06:13:55;102199.38;;;6.59;100.00
3294;BME280;1659;51.470;6.770;2023-04-08T06:16:22;102197.53;;;6.57;100.00
3294;BME280;1659;51.470;6.770;2023-04-08T06:18:50;102202.00;;;6.59;100.00
3294;BME280;1659;51.470;6.770;2023-04-08T06:21:17;102194.97;;;6.58;100.00
3294;BME280;1659;51.470;6.770;2023-04-08T06:23:43;102198.53;;;6.60;100.00
3294;BME280;1659;51.470;6.770;2023-04-08T06:26:10;102203.78;;;6.62;100.00
3294;BME280;1659;51.470;6.770;2023-04-08T06:28:37;102208.22;;;6.65;100.00
3294;BME280;1659;51.470;6.770;2023-04-08T06:31:04;102211.78;;;6.67;100.00
3294;BME280;1659;51.470;6.770;2023-04-08T06:33:30;102213.56;;;6.68;100.00
3294;BME280;1659;51.470;6.770;2023-04-08T06:36:07;102214.47;;;6.70;100.00
3294;BME280;1659;51.470;6.770;2023-04-08T06:38:34;102219.78;;;6.74;100.00
3294;BME280;1659;51.470;6.770;2023-04-08T06:41:01;102213.69;;;6.75;100.00
3294;BME280;1659;51.470;6.770;2023-04-08T06:43:28;102223.41;;;6.79;100.00
3294;BME280;1659;51.470;6.770;2023-04-08T06:45:55;102220.88;;;6.84;100.00
3294;BME280;1659;51.470;6.770;2023-04-08T06:48:22;102212.16;;;6.85;100.00
3294;BME280;1659;51.470;6.770;2023-04-08T06:50:52;102221.78;;;6.86;100.00
3294;BME280;1659;51.470;6.770;2023-04-08T06:53:21;102234.94;;;6.86;100.00
3294;BME280;1659;51.470;6.770;2023-04-08T06:55:47;102235.84;;;6.87;100.00
3294;BME280;1659;51.470;6.770;2023-04-08T06:58:14;102235.84;;;6.88;100.00
3294;BME280;1659;51.470;6.770;2023-04-08T07:00:41;102248.19;;;6.91;100.00
3294;BME280;1659;51.470;6.770;2023-04-08T07:03:08;102256.91;;;6.90;100.00
3294;BME280;1659;51.470;6.770;2023-04-08T07:05:35;102250.78;;;6.89;100.00
3294;BME280;1659;51.470;6.770;2023-04-08T07:08:02;102242.03;;;6.90;100.00
3294;BME280;1659;51.470;6.770;2023-04-08T07:10:30;102245.59;;;6.92;100.00
3294;BME280;1659;51.470;6.770;2023-04-08T07:12:57;102247.31;;;6.92;100.00
3294;BME280;1659;51.470;6.770;2023-04-08T07:15:23;102252.59;;;6.93;100.00
3294;BME280;1659;51.470;6.770;2023-04-08T07:17:50;102247.31;;;6.90;100.00
3294;BME280;1659;51.470;6.770;2023-04-08T07:20:17;102252.50;;;6.87;100.00
3294;BME280;1659;51.470;6.770;2023-04-08T07:22:43;102258.69;;;6.91;100.00
3294;BME280;1659;51.470;6.770;2023-04-08T07:25:10;102258.78;;;6.95;100.00
3294;BME280;1659;51.470;6.770;2023-04-08T07:27:38;102267.63;;;7.00;100.00
3294;BME280;1659;51.470;6.770;2023-04-08T07:30:05;102278.19;;;7.02;100.00
3294;BME280;1659;51.470;6.770;2023-04-08T07:32:33;102272.91;;;7.02;100.00
3294;BME280;1659;51.470;6.770;2023-04-08T07:35:01;102274.75;;;7.05;100.00
3294;BME280;1659;51.470;6.770;2023-04-08T07:37:27;102280.03;;;7.06;100.00
3294;BME280;1659;51.470;6.770;2023-04-08T07:39:54;102287.13;;;7.10;100.00
3294;BME280;1659;51.470;6.770;2023-04-08T07:42:21;102287.13;;;7.10;100.00
3294;BME280;1659;51.470;6.770;2023-04-08T07:44:48;102281.81;;;7.09;100.00
3294;BME280;1659;51.470;6.770;2023-04-08T07:47:16;102272.19;;;7.08;100.00
3294;BME280;1659;51.470;6.770;2023-04-08T07:49:45;102280.97;;;7.10;100.00
3294;BME280;1659;51.470;6.770;2023-04-08T07:52:12;102295.06;;;7.13;100.00
3294;BME280;1659;51.470;6.770;2023-04-08T07:54:38;102297.78;;;7.18;100.00
3294;BME280;1659;51.470;6.770;2023-04-08T07:57:06;102287.31;;;7.21;100.00
3294;BME280;1659;51.470;6.770;2023-04-08T07:59:32;102297.06;;;7.27;100.00
3294;BME280;1659;51.470;6.770;2023-04-08T08:02:00;102306.78;;;7.29;100.00
3294;BME280;1659;51.470;6.770;2023-04-08T08:04:27;102308.59;;;7.33;100.00
3294;BME280;1659;51.470;6.770;2023-04-08T08:06:53;102303.44;;;7.38;100.00
3294;BME280;1659;51.470;6.770;2023-04-08T08:09:20;102303.53;;;7.43;100.00
3294;BME280;1659;51.470;6.770;2023-04-08T08:11:46;102301.84;;;7.48;100.00
3294;BME280;1659;51.470;6.770;2023-04-08T08:14:13;102310.72;;;7.51;100.00
3294;BME280;1659;51.470;6.770;2023-04-08T08:16:40;102312.63;;;7.60;100.00
3294;BME280;1659;51.470;6.770;2023-04-08T08:19:08;102312.69;;;7.65;100.00
3294;BME280;1659;51.470;6.770;2023-04-08T08:21:36;102303.13;;;7.70;100.00
3294;BME280;1659;51.470;6.770;2023-04-08T08:24:03;102309.31;;;7.72;100.00
3294;BME280;1659;51.470;6.770;2023-04-08T08:26:30;102312.13;;;7.83;100.00
3294;BME280;1659;51.470;6.770;2023-04-08T08:28:57;102312.41;;;8.00;100.00
3294;BME280;1659;51.470;6.770;2023-04-08T08:31:23;102320.66;;;8.20;100.00
3294;BME280;1659;51.470;6.770;2023-04-08T08:33:50;102324.47;;;8.39;100.00
3294;BME280;1659;51.470;6.770;2023-04-08T08:36:18;102316.84;;;8.57;100.00
3294;BME280;1659;51.470;6.770;2023-04-08T08:38:44;102317.97;;;8.75;100.00
3294;BME280;1659;51.470;6.770;2023-04-08T08:41:11;102321.72;;;8.92;100.00
3294;BME280;1659;51.470;6.770;2023-04-08T08:43:37;102322.84;;;9.10;100.00
3294;BME280;1659;51.470;6.770;2023-04-08T08:46:05;102313.28;;;9.19;100.00
3294;BME280;1659;51.470;6.770;2023-04-08T08:48:35;102317.69;;;9.22;100.00
3294;BME280;1659;51.470;6.770;2023-04-08T08:51:07;102317.75;;;9.25;100.00
3294;BME280;1659;51.470;6.770;2023-04-08T08:53:35;102311.59;;;9.27;100.00
3294;BME280;1659;51.470;6.770;2023-04-08T08:56:02;102311.69;;;9.34;100.00
3294;BME280;1659;51.470;6.770;2023-04-08T08:58:28;102314.41;;;9.43;100.00
3294;BME280;1659;51.470;6.770;2023-04-08T09:00:55;102321.53;;;9.50;100.00
3294;BME280;1659;51.470;6.770;2023-04-08T09:03:23;102316.28;;;9.53;100.00
3294;BME280;1659;51.470;6.770;2023-04-08T09:05:52;102311.06;;;9.56;100.00
3294;BME280;1659;51.470;6.770;2023-04-08T09:08:23;102314.66;;;9.66;100.00
3294;BME280;1659;51.470;6.770;2023-04-08T09:10:51;102325.25;;;9.69;100.00
3294;BME280;1659;51.470;6.770;2023-04-08T09:13:18;102321.78;;;9.72;100.00
3294;BME280;1659;51.470;6.770;2023-04-08T09:16:01;102324.50;;;9.82;100.00
3294;BME280;1659;51.470;6.770;2023-04-08T09:18:29;102334.31;;;9.99;100.00
3294;BME280;1659;51.470;6.770;2023-04-08T09:20:57;102330.16;;;10.24;100.00
3294;BME280;1659;51.470;6.770;2023-04-08T09:23:36;102329.47;;;10.51;100.00
3294;BME280;1659;51.470;6.770;2023-04-08T09:26:08;102341.09;;;10.76;100.00
3294;BME280;1659;51.470;6.770;2023-04-08T09:28:35;102343.88;;;11.01;100.00
3294;BME280;1659;51.470;6.770;2023-04-08T09:31:17;102349.25;;;11.15;100.00
3294;BME280;1659;51.470;6.770;2023-04-08T09:33:44;102343.13;;;11.34;100.00
3294;BME280;1659;51.470;6.770;2023-04-08T09:36:11;102347.56;;;11.45;100.00
3294;BME280;1659;51.470;6.770;2023-04-08T09:38:38;102337.03;;;11.59;100.00
3294;BME280;1659;51.470;6.770;2023-04-08T09:41:07;102338.81;;;11.78;100.00
3294;BME280;1659;51.470;6.770;2023-04-08T09:43:41;102334.44;;;12.16;100.00
3294;BME280;1659;51.470;6.770;2023-04-08T09:46:10;102336.94;;;12.99;100.00
3294;BME280;1659;51.470;6.770;2023-04-08T09:48:45;102342.59;;;14.01;100.00
3294;BME280;1659;51.470;6.770;2023-04-08T09:51:14;102342.50;;;15.05;100.00
3294;BME280;1659;51.470;6.770;2023-04-08T09:53:46;102331.13;;;15.59;99.46
3294;BME280;1659;51.470;6.770;2023-04-08T09:56:14;102320.03;;;15.88;97.82
3294;BME280;1659;51.470;6.770;2023-04-08T09:58:48;102324.81;;;16.22;96.74
3294;BME280;1659;51.470;6.770;2023-04-08T10:01:21;102326.97;;;16.51;95.05
3294;BME280;1659;51.470;6.770;2023-04-08T10:03:53;102324.28;;;16.51;92.54
3294;BME280;1659;51.470;6.770;2023-04-08T10:06:21;102321.25;;;16.70;93.03
3294;BME280;1659;51.470;6.770;2023-04-08T10:08:53;102322.91;;;16.75;91.80
3294;BME280;1659;51.470;6.770;2023-04-08T10:11:22;102313.41;;;16.62;91.56
3294;BME280;1659;51.470;6.770;2023-04-08T10:13:49;102314.69;;;16.41;90.45
3294;BME280;1659;51.470;6.770;2023-04-08T10:16:17;102318.66;;;16.17;90.74
3294;BME280;1659;51.470;6.770;2023-04-08T10:18:44;102327.00;;;15.95;88.99
3294;BME280;1659;51.470;6.770;2023-04-08T10:21:35;102323.81;;;15.72;89.15
3294;BME280;1659;51.470;6.770;2023-04-08T10:24:06;102334.16;;;15.31;90.43
3294;BME280;1659;51.470;6.770;2023-04-08T10:26:38;102343.25;;;15.13;90.74
3294;BME280;1659;51.470;6.770;2023-04-08T10:32:28;102345.34;;;14.88;89.61
3294;BME280;1659;51.470;6.770;2023-04-08T10:34:55;102345.53;;;14.69;89.20
3294;BME280;1659;51.470;6.770;2023-04-08T10:37:22;102347.56;;;14.41;88.73
3294;BME280;1659;51.470;6.770;2023-04-08T10:39:49;102350.41;;;14.23;88.39
3294;BME280;1659;51.470;6.770;2023-04-08T10:42:18;102348.75;;;14.06;87.94
3294;BME280;1659;51.470;6.770;2023-04-08T10:44:45;102340.84;;;14.02;88.01
3294;BME280;1659;51.470;6.770;2023-04-08T10:47:11;102341.72;;;13.99;87.61
3294;BME280;1659;51.470;6.770;2023-04-08T10:49:38;102337.34;;;13.92;86.92
3294;BME280;1659;51.470;6.770;2023-04-08T10:52:06;102333.84;;;13.85;86.18
3294;BME280;1659;51.470;6.770;2023-04-08T10:54:33;102334.00;;;13.64;85.76
3294;BME280;1659;51.470;6.770;2023-04-08T10:57:00;102335.00;;;13.46;85.46
3294;BME280;1659;51.470;6.770;2023-04-08T10:59:29;102338.59;;;13.28;85.44
3294;BME280;1659;51.470;6.770;2023-04-08T11:01:56;102339.56;;;13.16;85.27
3294;BME280;1659;51.470;6.770;2023-04-08T11:04:23;102342.25;;;12.97;85.19
3294;BME280;1659;51.470;6.770;2023-04-08T11:06:50;102345.88;;;12.78;84.94
3294;BME280;1659;51.470;6.770;2023-04-08T11:09:17;102336.16;;;12.63;85.30
3294;BME280;1659;51.470;6.770;2023-04-08T11:11:44;102337.09;;;12.43;85.41
3294;BME280;1659;51.470;6.770;2023-04-08T11:14:11;102339.75;;;12.28;85.33
3294;BME280;1659;51.470;6.770;2023-04-08T11:16:40;102344.16;;;12.14;85.25
3294;BME280;1659;51.470;6.770;2023-04-08T11:19:07;102341.53;;;12.01;84.31
3294;BME280;1659;51.470;6.770;2023-04-08T11:21:35;102339.75;;;11.94;84.85
3294;BME280;1659;51.470;6.770;2023-04-08T11:24:06;102342.41;;;11.93;83.50
3294;BME280;1659;51.470;6.770;2023-04-08T11:26:35;102341.50;;;11.97;83.58
3294;BME280;1659;51.470;6.770;2023-04-08T11:29:02;102335.34;;;12.02;83.28
3294;BME280;1659;51.470;6.770;2023-04-08T11:31:31;102343.28;;;12.08;83.71
3294;BME280;1659;51.470;6.770;2023-04-08T11:33:59;102330.91;;;12.12;82.73
3294;BME280;1659;51.470;6.770;2023-04-08T11:36:27;102337.09;;;12.14;82.38
3294;BME280;1659;51.470;6.770;2023-04-08T11:38:54;102340.63;;;12.19;82.82
3294;BME280;1659;51.470;6.770;2023-04-08T11:41:21;102345.03;;;12.26;82.62
3294;BME280;1659;51.470;6.770;2023-04-08T11:43:54;102341.53;;;12.34;82.21
3294;BME280;1659;51.470;6.770;2023-04-08T11:46:22;102333.56;;;12.46;81.67
3294;BME280;1659;51.470;6.770;2023-04-08T11:49:03;102344.13;;;12.54;81.71
3294;BME280;1659;51.470;6.770;2023-04-08T11:51:30;102339.72;;;12.59;81.68
3294;BME280;1659;51.470;6.770;2023-04-08T11:53:58;102344.13;;;12.64;81.21
3294;BME280;1659;51.470;6.770;2023-04-08T11:56:25;102341.44;;;12.74;81.12
3294;BME280;1659;51.470;6.770;2023-04-08T11:58:54;102349.38;;;12.86;80.76
3294;BME280;1659;51.470;6.770;2023-04-08T12:01:21;102346.66;;;13.03;80.46
3294;BME280;1659;51.470;6.770;2023-04-08T12:03:58;102348.38;;;13.18;80.14
3294;BME280;1659;51.470;6.770;2023-04-08T12:06:27;102355.41;;;13.30;79.91
3294;BME280;1659;51.470;6.770;2023-04-08T12:08:54;102349.19;;;13.41;78.65
3294;BME280;1659;51.470;6.770;2023-04-08T12:11:21;102349.97;;;13.60;79.17
3294;BME280;1659;51.470;6.770;2023-04-08T12:13:48;102349.84;;;13.79;78.17
3294;BME280;1659;51.470;6.770;2023-04-08T12:16:17;102344.47;;;13.88;77.90
3294;BME280;1659;51.470;6.770;2023-04-08T12:18:44;102343.50;;;14.00;77.62
3294;BME280;1659;51.470;6.770;2023-04-08T12:21:11;102350.44;;;14.15;76.93
3294;BME280;1659;51.470;6.770;2023-04-08T12:23:39;102341.47;;;14.31;76.64
3294;BME280;1659;51.470;6.770;2023-04-08T12:26:05;102345.84;;;14.34;76.25
3294;BME280;1659;51.470;6.770;2023-04-08T12:28:32;102352.00;;;14.41;76.38
3294;BME280;1659;51.470;6.770;2023-04-08T12:31:00;102348.50;;;14.37;75.86
3294;BME280;1659;51.470;6.770;2023-04-08T12:33:26;102343.28;;;14.25;75.77
3294;BME280;1659;51.470;6.770;2023-04-08T12:35:53;102338.81;;;14.28;75.86
3294;BME280;1659;51.470;6.770;2023-04-08T12:38:19;102337.84;;;14.40;75.55
3294;BME280;1659;51.470;6.770;2023-04-08T12:40:47;102340.41;;;14.49;75.26
3294;BME280;1659;51.470;6.770;2023-04-08T12:43:13;102337.66;;;14.59;75.34
3294;BME280;1659;51.470;6.770;2023-04-08T12:45:40;102342.09;;;14.63;75.33
3294;BME280;1659;51.470;6.770;2023-04-08T12:48:07;102339.53;;;14.49;74.79
3294;BME280;1659;51.470;6.770;2023-04-08T12:50:34;102335.16;;;14.42;75.11
3294;BME280;1659;51.470;6.770;2023-04-08T12:53:01;102343.16;;;14.40;75.30
3294;BME280;1659;51.470;6.770;2023-04-08T12:55:27;102342.25;;;14.40;75.46
3294;BME280;1659;51.470;6.770;2023-04-08T12:57:55;102338.81;;;14.30;75.24
3294;BME280;1659;51.470;6.770;2023-04-08T13:00:22;102337.16;;;14.13;75.15
3294;BME280;1659;51.470;6.770;2023-04-08T13:02:50;102341.72;;;13.99;75.68
3294;BME280;1659;51.470;6.770;2023-04-08T13:05:16;102338.31;;;13.82;75.76
3294;BME280;1659;51.470;6.770;2023-04-08T13:07:44;102346.34;;;13.71;76.05
3294;BME280;1659;51.470;6.770;2023-04-08T13:10:11;102344.63;;;13.64;76.19
3294;BME280;1659;51.470;6.770;2023-04-08T13:12:37;102340.25;;;13.59;76.05
3294;BME280;1659;51.470;6.770;2023-04-08T13:15:07;102333.16;;;13.57;76.32
3294;BME280;1659;51.470;6.770;2023-04-08T13:17:34;102339.41;;;13.51;76.56